Historique des mesures à Cassis (13260), France
Quotidien Résumé Avril 22, 2018 Unités:  Métrique    US   Métrique/US
« Précédent (Jour)
Suivant (Jour) »
Quotidien Hebdomadaire Mensuel Annuel Période au choix
  Maximum: Minimum: Moyenne:
Température: TemperatureC °C 15.5 °C 19.3 °C
Point de rosée: DewpointC °C 7.5 °C 10 °C
Humidité: Humidity % 48 % 52 %
Vitesse du vent: 0 km/h 0 km/h 2.7 km/h
Rafales: 0 km/h - -
Vent:- - SW
Pression: PressurehPa hPa 1013.8 hPa -
Précipitations: 0.0 mm    
Historical Graphs
 
 
Mesures pour : Avril 22, 2018
Heure Temperature Point de rosée Pression Vent Vitesse du vent Rafales Humidité Pluie (par heure) Conditions
TemperatureC °C DewpointC °C PressurehPa hPa Calm     Humidity % HourlyPrecipMM mm SoftwareType W/m2
00:10 18.2 °C 8.2 °C 1014.8 hPa Calm   3.4 km/h 52 % 0.0 mm open2300-1.11 W/m2
01:10 18.1 °C 8.3 °C 1014.4 hPa WNW 1.8 km/h 1.8 km/h 53 % 0.0 mm open2300-1.11 W/m2
02:10 18.2 °C 8.2 °C 1014.1 hPa Calm   3.4 km/h 52 % 0.0 mm open2300-1.11 W/m2
03:10 17.3 °C 7.6 °C 1014.1 hPa Calm   4.2 km/h 53 % 0.0 mm open2300-1.11 W/m2
04:10 16.3 °C 7.5 °C 1014.1 hPa Calm   6.4 km/h 56 % 0.0 mm open2300-1.11 W/m2
05:10 16.1 °C 8.6 °C 1014.1 hPa NNW 7.6 km/h 7.6 km/h 61 % 0.0 mm open2300-1.11 W/m2
06:10 15.6 °C 8.1 °C 1014.1 hPa NNW 3.4 km/h 3.4 km/h 61 % 0.0 mm open2300-1.11 W/m2
07:10 15.5 °C 8.7 °C 1014.1 hPa NNW 4.2 km/h 5.6 km/h 64 % 0.0 mm open2300-1.11 W/m2
08:10 17.9 °C 9.4 °C 1014.1 hPa Calm   5.1 km/h 58 % 0.0 mm open2300-1.11 W/m2
09:10 19.1 °C 10.4 °C 1014.1 hPa SSE 6.4 km/h 6.4 km/h 57 % 0.0 mm open2300-1.11 W/m2
10:12 19.2 °C 10.7 °C 1014.4 hPa SE 2.3 km/h 5.6 km/h 58 % 0.0 mm open2300-1.11 W/m2
11:12 22.4 °C 12.6 °C 1015.1 hPa SSE 10.3 km/h 10.3 km/h 54 % 0.0 mm open2300-1.11 W/m2
12:11 24.6 °C 13.2 °C 1015.1 hPa Calm   5.6 km/h 49 % 0.0 mm open2300-1.11 W/m2
13:12 25.2 °C 14.1 °C 1015.1 hPa South 6.9 km/h 12.7 km/h 50 % 0.0 mm open2300-1.11 W/m2
14:11 24.9 °C 14.1 °C 1014.8 hPa SSE 15 km/h 17.9 km/h 51 % 0.0 mm open2300-1.11 W/m2
15:11 24.5 °C 13.4 °C 1014.4 hPa SE 3.4 km/h 8.9 km/h 50 % 0.0 mm open2300-1.11 W/m2
16:11 23.3 °C 12.9 °C 1014.1 hPa Calm   8 km/h 52 % 0.0 mm open2300-1.11 W/m2
17:11 24.1 °C 12.4 °C 1013.8 hPa SSE 3.4 km/h 9.3 km/h 48 % 0.0 mm open2300-1.11 W/m2
18:11 23.4 °C 11.7 °C 1014.1 hPa Calm   5.1 km/h 48 % 0.0 mm open2300-1.11 W/m2
19:11 21.8 °C 11.5 °C 1014.1 hPa Calm   6.9 km/h 52 % 0.0 mm open2300-1.11 W/m2
20:11 20.4 °C 10.5 °C 1014.1 hPa Calm     53 % 0.0 mm open2300-1.11 W/m2
21:10 19.3 °C 10.0 °C 1014.4 hPa WNW 4.7 km/h 4.7 km/h 55 % 0.0 mm open2300-1.11 W/m2
22:10 18.4 °C 9.4 °C 1015.5 hPa Calm   2.3 km/h 56 % 0.0 mm open2300-1.11 W/m2
23:10 17.5 °C 8.8 °C 1015.8 hPa Calm   2.3 km/h 57 % 0.0 mm open2300-1.11 W/m2
Observations météo à CASSIS
WU-History script by Weather Underground - 1 mb